Terminal Aerodrome Forecast
Issued by NWS Spokane, WA

Home | Current Version | Previous Version | Text Only | Print | Product List | Glossary On
Versions: 1 2 3 4 5 6 7 8 9 10 11 12 13 14 15 16 17 18 19 20 21 22 23 24 25 26 27 28 29 30 31
373
FTUS46 KOTX 102328
TAFEAT
TAF
KEAT 102328Z 1100/1124 VRB02KT P6SM SCT050 BKN120 BKN200
     FM110700 VRB02KT 4SM BR BKN005 BKN035
     FM111300 28004KT 1SM BR VCSH BKN005 OVC015
     FM111800 28003KT 3SM -SHRA BR SCT005 OVC008=

USA.gov is the U.S. government's official web portal to all federal, state and local government web resources and services.